San Jose Tobias Bolanos, Costa Rica

4:58 PM CST on September 25, 2016 (GMT -0600)
Carretera John F Kennedy | | Change Station

Elev 3395 ft 9.93 °N, 84.15 °W | Updated 1 minute ago

Mostly Cloudy
Mostly Cloudy
76.5 °F
Feels Like 78 °F
N
1.9
Wind Variable Wind from SSW
Gusts 4.3 mph

Today
High -- | Low -- °F
--% Chance of Precip.
Yesterday
High -- | Low -- °F
Precip. -- in
Pressure 29.96 in
Visibility 6.2 miles
Clouds Few 1500 ft
Mostly Cloudy 4000 ft
Heat Index 78 °F
Dew Point 68 °F
Humidity 76%
Rainfall 0.03 in
Snow Depth Not available.
5:25 AM 5:30 PM
Waning Crescent, 24% visible
METAR MRPV 252200Z 11007KT 9999 VCSH FEW015CB BKN040 23/18 A2996 TEMPO RA
Pressure 29.96 in
Visibility 6.2 miles
Clouds Few 1500 ft
Mostly Cloudy 4000 ft
Heat Index 78 °F
Dew Point 68 °F
Humidity 76%
Rainfall 0.03 in
Snow Depth Not available.
5:25 AM 5:30 PM
Waning Crescent, 24% visible
METAR MRPV 252200Z 11007KT 9999 VCSH FEW015CB BKN040 23/18 A2996 TEMPO RA

10-Day Weather Forecast

No radar image for this location.
×

Almanac

Astronomy

Sep. 25, 2016 Rise Set
Actual Time
Civil Twilight
Nautical Twilight
Astronomical Twilight
Moon
Length of Visible Light
Length of Day
Tomorrow will be .
, % of the Moon is Illuminated

Today's Extremes

Country Highs Country Lows

Community

WunderPhotos

Upload Photos

1,941,761 photos uploaded!

WunderBlog® & News

Nearby

Air Quality

  Air Quality AQ Index Pollutant
Not available.

Snow Depth

Station Depth Elevation

Earthquake Activity

City Distance Mag. Time & Date
Minimum magnitude displayed is 2.5.

Coastal Water Temperatures

Place Temperature

Stations

Nearby Weather Stations

Station Location Temp. Windchill Dew Point Humidity Wind Precip. Elev Updated Type